createdAt,value
2022-10-01T00:02:11.880Z,22.08
2022-10-01T00:04:40.002Z,22.23
2022-10-01T00:07:11.068Z,21.52
2022-10-01T00:09:40.592Z,25.17
2022-10-01T00:12:09.147Z,25.98
2022-10-01T00:14:39.458Z,22.95
2022-10-01T00:17:07.534Z,20.95
2022-10-01T00:19:35.576Z,23.58
2022-10-01T00:22:03.572Z,27.05
2022-10-01T00:24:31.598Z,23.65
2022-10-01T00:27:00.946Z,26.42
2022-10-01T00:29:29.072Z,23.55
2022-10-01T00:31:57.366Z,24.23
2022-10-01T00:34:25.562Z,24.63
2022-10-01T00:36:53.646Z,27.83
2022-10-01T00:39:21.933Z,24.95
2022-10-01T00:41:49.964Z,26.30
2022-10-01T00:44:34.524Z,26.35
2022-10-01T00:47:10.631Z,29.35
2022-10-01T00:49:40.984Z,24.70
2022-10-01T00:52:16.987Z,30.58
2022-10-01T00:54:49.379Z,28.20
2022-10-01T00:57:20.413Z,26.40
2022-10-01T00:59:51.562Z,26.80
2022-10-01T01:02:19.614Z,21.95
2022-10-01T01:04:48.272Z,25.73
2022-10-01T01:07:16.984Z,23.63
2022-10-01T01:09:48.289Z,25.98
2022-10-01T01:12:27.433Z,20.60
2022-10-01T01:15:10.425Z,24.40
2022-10-01T01:17:48.861Z,27.55
2022-10-01T01:20:31.152Z,40.97
2022-10-01T01:23:08.316Z,49.42
2022-10-01T01:25:47.345Z,28.17
2022-10-01T01:28:23.940Z,25.20
2022-10-01T01:30:58.656Z,23.48
2022-10-01T01:33:30.886Z,20.60
2022-10-01T01:36:04.690Z,22.67
2022-10-01T01:38:37.391Z,19.45
2022-10-01T01:41:07.992Z,29.80
2022-10-01T01:43:41.864Z,31.85
2022-10-01T01:46:11.727Z,28.00
2022-10-01T01:48:41.834Z,28.88
2022-10-01T01:51:15.433Z,38.25
2022-10-01T01:53:43.548Z,40.92
2022-10-01T01:56:11.825Z,44.50
2022-10-01T01:58:41.613Z,65.53
2022-10-01T02:01:25.283Z,36.70
2022-10-01T02:03:53.376Z,38.35
2022-10-01T02:06:35.596Z,58.85
2022-10-01T02:09:11.449Z,51.03
2022-10-01T02:11:53.384Z,52.35
2022-10-01T02:14:31.495Z,34.17
2022-10-01T02:17:03.821Z,42.05
2022-10-01T02:19:40.331Z,39.20
2022-10-01T02:22:13.266Z,45.65
2022-10-01T02:24:45.794Z,29.45
2022-10-01T02:27:17.288Z,31.63
2022-10-01T02:29:47.165Z,41.03
2022-10-01T02:32:17.213Z,36.40
2022-10-01T02:34:47.129Z,46.08
2022-10-01T02:37:16.084Z,46.08
2022-10-01T02:39:45.417Z,43.67
2022-10-01T02:42:16.890Z,35.70
2022-10-01T02:44:47.855Z,70.70
2022-10-01T02:47:21.518Z,37.78
2022-10-01T02:49:50.914Z,34.90
2022-10-01T02:52:27.409Z,27.27
2022-10-01T02:54:58.507Z,48.00
2022-10-01T02:57:28.244Z,47.35
2022-10-01T02:59:59.990Z,63.85
2022-10-01T03:02:29.885Z,57.72
2022-10-01T03:04:58.467Z,79.45
2022-10-01T03:07:26.947Z,62.90
2022-10-01T03:09:54.986Z,57.67
2022-10-01T03:12:23.484Z,72.00
2022-10-01T03:14:52.074Z,38.00
2022-10-01T03:17:21.607Z,37.22
2022-10-01T03:19:49.760Z,38.70
2022-10-01T03:22:22.509Z,37.03
2022-10-01T03:24:50.634Z,38.72
2022-10-01T03:27:19.005Z,55.88
2022-10-01T03:29:47.575Z,40.85
2022-10-01T03:32:16.146Z,55.15
2022-10-01T03:34:45.921Z,51.80
2022-10-01T03:37:14.205Z,56.05
2022-10-01T03:39:42.213Z,52.33
2022-10-01T03:42:10.266Z,43.70
2022-10-01T03:44:38.248Z,42.72
2022-10-01T03:47:06.224Z,45.17
2022-10-01T03:49:34.636Z,46.13
2022-10-01T03:52:05.418Z,46.15
2022-10-01T03:54:33.649Z,52.25
2022-10-01T03:57:01.739Z,54.72
2022-10-01T03:59:29.878Z,42.53
2022-10-01T04:01:57.904Z,57.42
2022-10-01T04:04:26.052Z,63.75
2022-10-01T04:06:54.013Z,71.35
2022-10-01T04:09:23.697Z,66.18
2022-10-01T04:11:51.642Z,62.97
2022-10-01T04:14:19.574Z,47.75
2022-10-01T04:16:49.862Z,52.25
2022-10-01T04:19:17.905Z,73.25
2022-10-01T04:21:45.964Z,57.85
2022-10-01T04:24:13.922Z,54.42
2022-10-01T04:26:43.416Z,53.88
2022-10-01T04:29:11.395Z,55.90
2022-10-01T04:31:40.403Z,60.50
2022-10-01T04:34:08.496Z,65.15
2022-10-01T04:36:36.558Z,55.40
2022-10-01T04:39:08.949Z,75.07
2022-10-01T04:41:37.129Z,57.25
2022-10-01T04:44:07.098Z,56.90
2022-10-01T04:46:36.393Z,69.32
2022-10-01T04:49:04.529Z,49.72
2022-10-01T04:51:32.792Z,62.42
2022-10-01T04:54:01.131Z,37.78
2022-10-01T04:56:29.038Z,59.92
2022-10-01T04:58:56.997Z,43.17
2022-10-01T05:01:26.549Z,49.88
2022-10-01T05:03:54.561Z,45.72
2022-10-01T05:06:22.622Z,39.45
2022-10-01T05:08:50.817Z,38.90
2022-10-01T05:11:18.873Z,37.67
2022-10-01T05:13:46.837Z,39.55
2022-10-01T05:16:14.847Z,33.67
2022-10-01T05:18:44.256Z,39.40
2022-10-01T05:21:12.806Z,31.17
2022-10-01T05:23:40.721Z,36.05
2022-10-01T05:26:09.511Z,41.03
2022-10-01T05:28:39.183Z,36.78
2022-10-01T05:31:07.425Z,41.67
2022-10-01T05:33:35.513Z,32.25
2022-10-01T05:36:07.181Z,32.85
2022-10-01T05:38:37.346Z,30.75
2022-10-01T05:41:05.512Z,31.08
2022-10-01T05:43:33.716Z,31.05
2022-10-01T05:46:02.889Z,32.47
2022-10-01T05:48:37.082Z,29.83
2022-10-01T05:51:08.403Z,17.25
2022-10-01T05:53:37.873Z,23.02
2022-10-01T05:56:06.516Z,23.20
2022-10-01T05:58:35.659Z,20.80
2022-10-01T06:01:04.214Z,24.45
2022-10-01T06:03:32.526Z,36.30
2022-10-01T06:06:00.852Z,24.73
2022-10-01T06:08:30.156Z,27.70
2022-10-01T06:11:01.409Z,23.10
2022-10-01T06:13:30.150Z,31.00
2022-10-01T06:15:58.125Z,23.73
2022-10-01T06:18:27.381Z,21.33
2022-10-01T06:20:55.373Z,19.98
2022-10-01T06:23:23.350Z,30.30
2022-10-01T06:25:52.822Z,23.75
2022-10-01T06:28:21.248Z,21.85
2022-10-01T06:30:49.776Z,24.52
2022-10-01T06:33:18.740Z,26.20
2022-10-01T06:35:48.607Z,36.58
2022-10-01T06:38:17.819Z,26.45
2022-10-01T06:40:45.796Z,12.48
2022-10-01T06:43:15.231Z,23.13
2022-10-01T06:45:43.359Z,26.05
2022-10-01T06:48:15.049Z,26.13
2022-10-01T06:50:43.908Z,29.77
2022-10-01T06:53:12.202Z,37.70
2022-10-01T06:55:40.368Z,36.92
2022-10-01T06:58:11.197Z,38.17
2022-10-01T07:00:40.890Z,33.13
2022-10-01T07:03:11.158Z,36.55
2022-10-01T07:05:39.690Z,39.58
2022-10-01T07:08:08.440Z,38.72
2022-10-01T07:10:37.502Z,33.50
2022-10-01T07:13:09.957Z,36.30
2022-10-01T07:15:38.250Z,31.88
2022-10-01T07:18:11.209Z,33.88
2022-10-01T07:20:40.771Z,37.97
2022-10-01T07:23:11.195Z,22.08
2022-10-01T07:25:39.810Z,16.95
2022-10-01T07:28:16.007Z,23.15
2022-10-01T07:30:44.500Z,25.77
2022-10-01T07:33:13.990Z,17.48
2022-10-01T07:35:42.344Z,24.70
2022-10-01T07:38:10.464Z,30.23
2022-10-01T07:40:38.403Z,25.17
2022-10-01T07:43:06.401Z,21.35
2022-10-01T07:45:34.445Z,14.95
2022-10-01T07:48:04.270Z,24.30
2022-10-01T07:50:33.673Z,21.08
2022-10-01T07:53:02.826Z,23.48
2022-10-01T07:55:32.837Z,15.30
2022-10-01T07:58:01.520Z,26.30
2022-10-01T08:00:31.342Z,10.93
2022-10-01T08:02:59.347Z,22.50
2022-10-01T08:05:29.721Z,22.85
2022-10-01T08:08:02.019Z,15.18
2022-10-01T08:10:30.740Z,22.60
2022-10-01T08:13:02.118Z,24.60
2022-10-01T08:15:30.096Z,24.65
2022-10-01T08:17:58.043Z,24.77
2022-10-01T08:20:25.978Z,17.90
2022-10-01T08:22:53.968Z,23.98
2022-10-01T08:25:23.344Z,7.90
2022-10-01T08:27:51.423Z,24.35
2022-10-01T08:30:19.341Z,21.38
2022-10-01T08:32:47.323Z,9.05
2022-10-01T08:35:16.144Z,21.23
2022-10-01T08:37:44.412Z,20.73
2022-10-01T08:40:12.387Z,13.73
2022-10-01T08:42:52.343Z,17.05
2022-10-01T08:45:27.004Z,13.68
2022-10-01T08:50:40.106Z,18.17
2022-10-01T08:53:15.650Z,9.75
2022-10-01T08:55:44.958Z,18.15
2022-10-01T08:58:22.994Z,18.17
2022-10-01T09:00:52.721Z,16.40
2022-10-01T09:03:20.717Z,17.13
2022-10-01T09:06:04.110Z,11.68
2022-10-01T09:08:46.076Z,19.55
2022-10-01T09:11:23.890Z,13.88
2022-10-01T09:14:13.858Z,15.05
2022-10-01T09:16:52.635Z,6.93
2022-10-01T09:19:35.822Z,8.88
2022-10-01T09:22:12.268Z,10.70
2022-10-01T09:24:45.356Z,6.85
2022-10-01T09:27:16.159Z,8.90
2022-10-01T09:29:50.493Z,12.10
2022-10-01T09:32:23.436Z,13.38
2022-10-01T09:34:52.011Z,6.32
2022-10-01T09:37:37.326Z,8.05
2022-10-01T09:40:15.903Z,9.77
2022-10-01T09:42:44.532Z,12.30
2022-10-01T09:45:16.263Z,7.05
2022-10-01T09:47:46.607Z,8.63
2022-10-01T09:50:19.082Z,10.30
2022-10-01T09:52:50.865Z,6.90
2022-10-01T09:55:33.836Z,5.95
2022-10-01T09:58:08.878Z,6.13
2022-10-01T10:00:41.059Z,6.13
2022-10-01T10:03:09.407Z,5.95
2022-10-01T10:05:48.216Z,5.95
2022-10-01T10:08:21.731Z,7.35
2022-10-01T16:58:37.005Z,46.17
2022-10-01T17:13:23.700Z,26.83
2022-10-01T17:19:48.348Z,24.55
